Ana Sayfa
METAR-TAF:

METAR-TAF

Havaalanları :

Pottstown Limerick Airport

Pottstown, Pensilvanya, Amerika Birleşik Devletleri

Enlem: 40-14-18N, Boylam: 075-33-26W, yükseklik: 89 m

Güncel hava durumu gözlemi

Rapor saat 16:54 UTC de 18 dakika önce yapıldı.
Rüzgar kuzey/kuzeybatıdan 19 kt ve 27 kt'a kadar ani rüzgarlar
Sıcaklık 11°C
Nem 37%
Basınç 1008 hPa
Görüş mesafesi: 16.1 km
6000 ft yükseklikte az bulutlu

METAR: KPTW 021654Z AUTO 33019G27KT 10SM FEW060 11/M03 A2978 RMK AO2 PK WND 30029/1625 SLP084 T01061028

Saat: 13:12 (17:12 UTC)


TAF: eksik

4.000'den fazla havaalanı için hava durumu gözlemleri ve tahminleri (METAR ve TAF raporları).

Kullanılabilir istasyonlar harita üzerinde sarı ve kırmızı noktalarla gösterilir.

İstasyonun adını görmek için fareyi noktanın üzerinde gezdirin.

Sonrasında hava gözlem ve tahminlerini görmek için tıklayın.

Haritayı değiştirmek için: yaklaştırmak için siyah artı işaretli yeşil düğmeye ve uzaklaştırmak için de eksi işaretli düğmeye hızla tıklayın; bitişik haritalar için yeşil okları kullanın.


METAR-TAF: